Time;durP1;ratioP1;P1;durP2;ratioP2;P2;SDS_P1;SDS_P2;PMS_P1;PMS_P2;Temp;Humidity;BMP_temperature;BMP_pressure;BME280_temperature;BME280_humidity;BME280_pressure;Samples;Min_cycle;Max_cycle;Signal;HPM_P1;HPM_P2
2023/04/11 00:00:33;;;;;;;6.50;5.90;;;;;;;12.44;58.30;94391.97;5030900;28;20587;-53
2023/04/11 00:03:01;;;;;;;6.57;5.93;;;;;;;12.44;58.24;94386.84;5043605;28;20663;-53
2023/04/11 00:05:31;;;;;;;6.57;5.97;;;;;;;12.41;58.30;94381.22;5050461;28;20588;-53
2023/04/11 00:07:58;;;;;;;6.80;6.17;;;;;;;12.43;58.32;94380.09;5050118;28;20226;-54
2023/04/11 00:10:24;;;;;;;7.00;6.30;;;;;;;12.42;58.44;94383.63;5038560;28;20686;-53
2023/04/11 00:12:55;;;;;;;7.53;5.87;;;;;;;12.40;58.41;94375.28;5029868;28;20583;-52
2023/04/11 00:15:23;;;;;;;6.33;5.73;;;;;;;12.40;58.52;94377.06;5030230;28;20282;-52
2023/04/11 00:17:50;;;;;;;6.80;6.10;;;;;;;12.24;58.33;94339.34;5029757;28;20630;-53
2023/04/11 00:20:17;;;;;;;6.80;5.80;;;;;;;12.35;58.17;94363.88;5039439;28;20249;-54
2023/04/11 00:22:45;;;;;;;7.83;6.47;;;;;;;12.36;58.67;94360.38;5029804;28;20191;-53
2023/04/11 00:25:12;;;;;;;6.50;5.73;;;;;;;12.35;58.49;94363.88;5030049;28;20191;-51
2023/04/11 00:27:39;;;;;;;6.80;6.20;;;;;;;12.31;58.52;94358.28;5030619;28;20196;-53
2023/04/11 00:30:07;;;;;;;6.63;5.90;;;;;;;12.19;58.83;94347.50;5045983;28;20195;-54
2023/04/11 00:32:34;;;;;;;6.20;5.60;;;;;;;11.80;58.70;94290.81;5033041;28;20207;-54
2023/04/11 00:35:01;;;;;;;6.57;5.93;;;;;;;12.29;58.46;94366.13;5029639;28;20192;-54
2023/04/11 00:37:28;;;;;;;6.10;5.57;;;;;;;12.17;58.78;94338.34;5031045;28;20273;-53
2023/04/11 00:39:56;;;;;;;6.33;5.70;;;;;;;12.28;58.92;94356.03;5040649;28;20189;-53
2023/04/11 00:42:23;;;;;;;6.57;5.90;;;;;;;12.27;59.02;94355.22;5049528;28;20211;-52
2023/04/11 00:44:50;;;;;;;6.70;6.00;;;;;;;12.25;58.85;94358.91;5049358;28;20339;-52
2023/04/11 00:47:17;;;;;;;6.30;5.70;;;;;;;12.26;58.92;94358.75;5049513;28;20206;-54
2023/04/11 00:49:44;;;;;;;6.67;6.07;;;;;;;12.26;59.06;94361.31;5038976;28;20194;-50
2023/04/11 00:52:11;;;;;;;6.70;6.03;;;;;;;12.25;58.86;94364.81;5046918;28;20191;-53
2023/04/11 00:54:39;;;;;;;6.37;5.77;;;;;;;12.25;59.10;94359.69;5029229;28;20218;-54
2023/04/11 00:57:08;;;;;;;6.30;5.70;;;;;;;12.07;58.93;94327.44;5029594;28;20191;-53
2023/04/11 00:59:35;;;;;;;6.33;5.73;;;;;;;12.27;59.14;94354.44;5029394;28;20210;-56
2023/04/11 01:02:02;;;;;;;6.13;5.43;;;;;;;12.27;58.82;94359.56;5029274;28;20215;-54
2023/04/11 01:04:29;;;;;;;6.60;5.93;;;;;;;12.25;58.85;94353.75;5037349;28;20202;-55
2023/04/11 01:07:02;;;;;;;5.93;5.43;;;;;;;12.27;58.95;94364.69;5045820;28;20687;-55
2023/04/11 01:09:30;;;;;;;5.90;5.37;;;;;;;12.27;58.91;94364.69;5028246;28;20310;-54
2023/04/11 01:11:57;;;;;;;7.90;5.80;;;;;;;12.28;58.76;94366.28;5029344;28;20191;-53
2023/04/11 01:14:27;;;;;;;6.13;5.53;;;;;;;12.21;59.10;94353.28;5033633;28;20678;-54
2023/04/11 01:16:55;;;;;;;6.57;5.97;;;;;;;12.28;59.00;94359.38;5048861;28;20195;-53
2023/04/11 01:19:23;;;;;;;6.23;5.63;;;;;;;12.30;58.75;94362.63;5048599;28;20253;-55
2023/04/11 01:21:52;;;;;;;6.70;6.10;;;;;;;12.19;58.93;94346.72;5048327;28;20606;-54
2023/04/11 01:24:20;;;;;;;6.40;5.50;;;;;;;12.31;59.00;94365.97;5047461;28;20195;-55
2023/04/11 01:26:47;;;;;;;6.33;5.73;;;;;;;12.32;59.04;94359.88;5031144;28;20191;-55
2023/04/11 01:29:13;;;;;;;6.40;5.80;;;;;;;12.33;58.92;94364.06;5029210;28;20191;-55
2023/04/11 01:31:40;;;;;;;7.20;6.47;;;;;;;12.33;58.96;94360.69;5028676;28;20198;-54
2023/04/11 01:34:11;;;;;;;6.80;5.93;;;;;;;12.32;59.26;94361.66;5029713;28;20198;-53
2023/04/11 01:36:38;;;;;;;6.40;5.80;;;;;;;12.35;58.83;94361.31;5041968;28;20202;-53
2023/04/11 01:39:05;;;;;;;6.40;5.80;;;;;;;12.34;59.07;94368.22;5048802;28;20187;-55
2023/04/11 01:41:34;;;;;;;6.10;5.60;;;;;;;12.35;59.18;94364.72;5048758;28;20218;-53
2023/04/11 01:44:01;;;;;;;7.40;6.70;;;;;;;12.34;59.07;94357.94;5049065;28;20187;-53
2023/04/11 01:46:28;;;;;;;6.33;5.73;;;;;;;11.85;59.04;94283.50;5040392;28;20246;-54
2023/04/11 01:48:57;;;;;;;6.87;6.27;;;;;;;12.36;59.14;94357.81;5029082;28;20195;-54
2023/04/11 01:51:24;;;;;;;6.80;5.57;;;;;;;12.36;59.16;94355.25;5028739;28;20199;-54
2023/04/11 01:53:51;;;;;;;6.60;6.00;;;;;;;12.33;59.02;94350.44;5029193;28;20192;-54
2023/04/11 01:56:17;;;;;;;6.60;6.00;;;;;;;12.35;59.07;94351.88;5029798;28;20192;-53
2023/04/11 01:58:46;;;;;;;6.43;5.83;;;;;;;12.35;59.13;94349.31;5048711;28;20230;-54
2023/04/11 02:01:13;;;;;;;6.90;5.90;;;;;;;12.34;59.18;94345.13;5048607;28;20211;-52
2023/04/11 02:03:40;;;;;;;7.13;6.43;;;;;;;12.35;58.91;94346.75;5048588;28;20623;-55
2023/04/11 02:06:07;;;;;;;7.53;6.37;;;;;;;12.34;59.24;94342.56;5047237;28;20188;-54
2023/04/11 02:08:34;;;;;;;6.20;5.60;;;;;;;12.33;59.16;94346.09;5036083;28;20246;-56
2023/04/11 02:11:01;;;;;;;6.10;5.57;;;;;;;12.31;59.22;94337.78;5028812;28;20191;-54
2023/04/11 02:13:28;;;;;;;7.57;6.87;;;;;;;12.32;59.28;94344.50;5028841;28;20709;-54
2023/04/11 02:15:56;;;;;;;6.97;6.37;;;;;;;12.30;59.45;94339.53;5029068;28;20622;-52
2023/04/11 02:18:22;;;;;;;7.20;6.10;;;;;;;12.29;59.36;94347.38;5028267;28;20188;-53
2023/04/11 02:20:50;;;;;;;6.97;6.33;;;;;;;12.27;59.42;94341.59;5036222;28;20249;-54
2023/04/11 02:23:16;;;;;;;6.83;6.13;;;;;;;12.27;59.21;94339.84;5051416;28;20215;-55
2023/04/11 02:25:43;;;;;;;7.40;6.70;;;;;;;12.20;59.40;94331.16;5051340;28;20205;-54
2023/04/11 02:28:10;;;;;;;7.70;6.90;;;;;;;12.24;59.40;94339.34;5032061;28;20195;-55
2023/04/11 02:30:37;;;;;;;7.37;6.63;;;;;;;12.24;59.46;94344.47;5032322;28;20203;-54
2023/04/11 02:33:05;;;;;;;6.80;6.10;;;;;;;12.23;59.52;94353.94;5031878;28;20269;-54
2023/04/11 02:35:32;;;;;;;6.97;6.27;;;;;;;12.22;59.51;94348.97;5037964;28;20199;-53
2023/04/11 02:37:59;;;;;;;6.97;6.27;;;;;;;12.21;59.47;94342.22;5051732;28;20508;-55
2023/04/11 02:40:26;;;;;;;8.03;7.23;;;;;;;12.18;59.47;94348.47;5037447;28;20203;-54
2023/04/11 02:42:52;;;;;;;7.90;7.10;;;;;;;12.18;59.51;94340.78;5031865;28;20707;-54
2023/04/11 02:45:19;;;;;;;7.03;6.33;;;;;;;12.19;59.68;94346.72;5031452;28;20257;-54
2023/04/11 02:47:46;;;;;;;8.90;7.03;;;;;;;11.71;59.29;94272.06;5031567;28;20199;-54
2023/04/11 02:50:14;;;;;;;7.13;6.43;;;;;;;12.18;59.58;94340.00;5034761;28;20260;-54
2023/04/11 02:52:43;;;;;;;8.53;6.50;;;;;;;12.18;59.45;94345.13;5031859;28;20210;-56
2023/04/11 02:55:11;;;;;;;7.97;7.17;;;;;;;12.14;59.56;94334.38;5031343;28;20203;-54
2023/04/11 02:57:38;;;;;;;7.97;7.03;;;;;;;12.16;59.63;94329.88;5031684;28;20199;-53
2023/04/11 03:00:07;;;;;;;9.20;8.00;;;;;;;12.16;59.49;94323.94;5031480;28;20192;-53
2023/04/11 03:02:34;;;;;;;7.40;6.67;;;;;;;12.16;59.49;94329.06;5031604;28;20266;-53
2023/04/11 03:05:02;;;;;;;7.60;6.93;;;;;;;12.07;59.13;94314.63;5031047;28;20563;-54
2023/04/11 03:07:31;;;;;;;7.67;6.97;;;;;;;12.11;59.21;94321.06;5031590;28;20215;-54
2023/04/11 03:09:58;;;;;;;7.40;6.63;;;;;;;12.13;59.52;94319.13;5031003;28;20314;-52
2023/04/11 03:12:25;;;;;;;7.20;6.50;;;;;;;12.12;59.59;94328.56;5031573;28;20511;-55
2023/04/11 03:14:52;;;;;;;7.97;7.17;;;;;;;12.15;59.45;94324.91;5031412;28;20188;-51
2023/04/11 03:17:19;;;;;;;8.63;7.73;;;;;;;12.16;59.48;94326.50;5031422;28;20591;-53
2023/04/11 03:19:45;;;;;;;8.60;7.60;;;;;;;12.17;59.84;94328.09;5036144;28;20191;-54
2023/04/11 03:22:13;;;;;;;7.73;7.03;;;;;;;12.16;59.45;94336.75;5050737;28;20257;-53
2023/04/11 03:24:41;;;;;;;7.97;7.00;;;;;;;12.14;59.61;94331.81;5050917;28;20180;-54
2023/04/11 03:27:08;;;;;;;7.67;6.97;;;;;;;12.14;59.47;94328.44;5050940;28;20198;-53
2023/04/11 03:29:35;;;;;;;8.73;7.93;;;;;;;12.13;59.55;94326.81;5051552;28;20186;-54
2023/04/11 03:32:02;;;;;;;9.37;7.37;;;;;;;12.15;59.63;94330.84;5049773;28;20202;-52
2023/04/11 03:34:28;;;;;;;7.53;6.83;;;;;;;12.14;59.43;94328.44;5045556;28;20180;-52
2023/04/11 03:36:55;;;;;;;7.67;6.83;;;;;;;12.11;59.43;94321.84;5031004;28;20191;-54
2023/04/11 03:39:22;;;;;;;9.40;7.63;;;;;;;12.13;59.60;94326.81;5030981;28;20290;-54
2023/04/11 03:41:51;;;;;;;7.63;6.93;;;;;;;12.12;59.41;94322.66;5030874;28;20243;-53
2023/04/11 03:44:17;;;;;;;8.37;7.43;;;;;;;12.13;59.51;94324.25;5030899;28;20194;-54
2023/04/11 03:46:44;;;;;;;9.03;7.97;;;;;;;12.12;59.56;94336.25;5030541;28;20679;-53
2023/04/11 03:49:11;;;;;;;7.60;6.90;;;;;;;12.13;59.43;94331.94;5035345;28;20593;-55
2023/04/11 03:51:38;;;;;;;7.63;6.83;;;;;;;12.03;59.24;94319.25;5050399;28;20699;-53
2023/04/11 03:54:04;;;;;;;8.80;7.97;;;;;;;12.12;59.49;94331.13;5050342;28;20191;-54
2023/04/11 03:56:31;;;;;;;8.67;7.77;;;;;;;12.13;59.42;94326.81;5050410;28;20689;-53
2023/04/11 03:59:00;;;;;;;8.53;7.67;;;;;;;12.12;59.47;94326.00;5050383;28;20206;-56
2023/04/11 04:01:27;;;;;;;8.90;7.33;;;;;;;12.11;59.29;94323.63;5050315;28;20240;-54
2023/04/11 04:03:53;;;;;;;9.07;7.73;;;;;;;12.09;59.52;94323.78;5049881;28;20617;-52
2023/04/11 04:06:20;;;;;;;9.90;8.13;;;;;;;12.06;59.42;94326.66;5050177;28;20198;-54
2023/04/11 04:08:47;;;;;;;9.67;8.57;;;;;;;12.11;59.27;94329.53;5050122;28;20222;-53
2023/04/11 04:11:14;;;;;;;8.03;7.27;;;;;;;12.10;59.38;94327.16;5050355;28;20183;-57
2023/04/11 04:13:40;;;;;;;8.60;7.67;;;;;;;12.12;59.40;94335.47;5050008;28;20199;-54
2023/04/11 04:16:09;;;;;;;9.63;8.30;;;;;;;12.10;59.53;94333.06;5049742;28;20203;-52
2023/04/11 04:18:36;;;;;;;8.73;7.83;;;;;;;12.08;59.56;94327.28;5049363;28;20183;-54
2023/04/11 04:21:05;;;;;;;8.70;7.73;;;;;;;12.08;59.39;94321.34;5041758;28;20253;-54
2023/04/11 04:23:32;;;;;;;8.20;7.00;;;;;;;12.04;59.49;94321.66;5029888;28;20270;-51
2023/04/11 04:26:00;;;;;;;8.63;7.73;;;;;;;12.08;59.46;94327.28;5029951;28;20207;-55
2023/04/11 04:28:27;;;;;;;9.57;8.57;;;;;;;12.08;59.41;94319.59;5029565;28;20188;-54
2023/04/11 04:30:56;;;;;;;9.27;8.37;;;;;;;12.10;59.48;94327.94;5029958;28;20188;-54
2023/04/11 04:33:25;;;;;;;9.60;8.37;;;;;;;12.09;59.37;94326.34;5037462;28;20183;-53
2023/04/11 04:35:56;;;;;;;11.83;9.47;;;;;;;12.07;59.57;94324.88;5049703;28;20296;-53
2023/04/11 04:38:24;;;;;;;9.23;8.10;;;;;;;12.08;59.45;94324.72;5049975;28;20659;-54
2023/04/11 04:40:53;;;;;;;9.77;8.77;;;;;;;12.08;59.45;94327.28;5049617;28;20205;-54
2023/04/11 04:43:22;;;;;;;9.23;7.63;;;;;;;12.10;59.42;94324.59;5038567;28;20320;-53
2023/04/11 04:45:49;;;;;;;12.03;8.70;;;;;;;12.04;59.23;94319.09;5029627;28;20208;-55
2023/04/11 04:48:17;;;;;;;10.90;8.90;;;;;;;12.10;59.43;94322.81;5030655;28;20223;-54
2023/04/11 04:50:45;;;;;;;11.03;9.37;;;;;;;12.11;59.34;94324.41;5031295;28;20187;-56
2023/04/11 04:53:12;;;;;;;10.07;8.90;;;;;;;12.08;59.32;94316.22;5049360;28;20191;-55
2023/04/11 04:55:39;;;;;;;10.27;9.03;;;;;;;12.10;59.28;94316.88;5043065;28;20202;-56
2023/04/11 04:58:06;;;;;;;10.33;8.77;;;;;;;12.16;59.31;94327.31;5029455;28;20191;-54
2023/04/11 05:00:33;;;;;;;10.37;8.97;;;;;;;12.18;59.09;94325.41;5029160;28;20271;-52
2023/04/11 05:03:04;;;;;;;10.00;8.77;;;;;;;12.22;59.13;94326.69;5041414;28;20297;-54
2023/04/11 05:05:31;;;;;;;10.07;8.50;;;;;;;12.26;59.18;94322.88;5048494;28;20190;-55
2023/04/11 05:07:59;;;;;;;13.23;8.93;;;;;;;12.17;59.09;94303.28;5049534;28;20193;-55
2023/04/11 05:10:26;;;;;;;11.23;8.83;;;;;;;12.37;58.99;94324.31;5048973;28;20237;-53
2023/04/11 05:12:55;;;;;;;9.73;8.53;;;;;;;12.42;58.91;94322.06;5049400;28;20677;-52
2023/04/11 05:15:22;;;;;;;10.13;9.13;;;;;;;12.48;58.71;94316.34;5049062;28;20198;-55
2023/04/11 05:17:49;;;;;;;12.63;10.27;;;;;;;12.54;59.34;94302.84;5048818;28;20191;-55
2023/04/11 05:20:16;;;;;;;10.77;8.97;;;;;;;12.74;60.00;94318.75;5048630;28;20195;-53
2023/04/11 05:22:43;;;;;;;12.00;8.37;;;;;;;12.94;60.40;94314.09;5035645;28;20226;-53
2023/04/11 05:25:11;;;;;;;11.20;8.93;;;;;;;13.19;60.72;94316.63;5029408;28;20202;-53
2023/04/11 05:27:38;;;;;;;22.67;9.43;;;;;;;13.28;61.48;94283.09;5029290;28;20184;-55
2023/04/11 05:30:06;;;;;;;11.30;9.23;;;;;;;13.71;61.21;94318.78;5029547;28;20195;-54
2023/04/11 05:32:33;;;;;;;15.80;9.63;;;;;;;13.86;61.03;94306.03;5035982;28;20919;-55
2023/04/11 05:35:00;;;;;;;12.83;9.97;;;;;;;14.03;61.04;94313.53;5033109;28;20196;-55
2023/04/11 05:37:30;;;;;;;12.17;10.13;;;;;;;14.17;61.04;94311.22;5028929;28;20207;-55
2023/04/11 05:39:57;;;;;;;14.90;9.87;;;;;;;14.34;60.83;94301.63;5029703;28;20183;-55
2023/04/11 05:42:25;;;;;;;10.80;9.60;;;;;;;14.48;60.18;94296.56;5043095;28;20274;-56
2023/04/11 05:44:52;;;;;;;15.83;11.00;;;;;;;14.26;60.14;94243.31;5048751;28;20696;-55
2023/04/11 05:47:19;;;;;;;12.90;9.10;;;;;;;14.89;59.70;94311.72;5036209;28;20196;-56
2023/04/11 05:49:47;;;;;;;13.77;9.90;;;;;;;15.06;59.57;94302.88;5029421;28;20581;-56
2023/04/11 05:52:14;;;;;;;9.87;8.33;;;;;;;15.34;59.36;94299.72;5028812;28;20196;-55
2023/04/11 05:54:41;;;;;;;10.80;8.90;;;;;;;15.61;58.86;94300.91;5029127;28;20195;-55
2023/04/11 05:57:07;;;;;;;12.47;8.73;;;;;;;15.90;58.25;94294.16;5032766;28;20663;-55
2023/04/11 05:59:36;;;;;;;9.27;8.37;;;;;;;16.15;57.87;94297.22;5033262;28;20195;-54
2023/04/11 06:02:03;;;;;;;10.60;8.57;;;;;;;16.43;57.46;94307.66;5047127;28;20278;-53
2023/04/11 06:04:30;;;;;;;12.47;8.20;;;;;;;16.50;56.95;94274.97;5034056;28;20605;-54
2023/04/11 06:06:57;;;;;;;9.17;7.93;;;;;;;16.98;56.70;94301.84;5043380;28;20226;-51
2023/04/11 06:09:24;;;;;;;8.67;7.87;;;;;;;17.39;55.93;94302.91;5039642;28;20219;-51
2023/04/11 06:11:51;;;;;;;9.70;8.20;;;;;;;17.90;55.72;94290.50;5037771;28;20191;-53
2023/04/11 06:14:17;;;;;;;9.37;8.03;;;;;;;18.46;55.24;94292.88;5042930;28;20218;-53
2023/04/11 06:16:46;;;;;;;8.60;7.70;;;;;;;19.04;54.68;94289.78;5040519;28;20667;-54
2023/04/11 06:19:12;;;;;;;9.07;7.57;;;;;;;19.65;53.94;94280.97;5040926;28;20205;-55
2023/04/11 06:21:39;;;;;;;8.63;7.73;;;;;;;20.20;53.34;94278.78;5044007;28;20210;-54
2023/04/11 06:24:09;;;;;;;8.43;7.53;;;;;;;20.66;52.37;94288.16;5045256;28;20211;-54
2023/04/11 06:26:36;;;;;;;7.00;6.37;;;;;;;21.11;51.68;94282.81;5040372;28;20201;-55
2023/04/11 06:29:05;;;;;;;7.87;6.77;;;;;;;21.69;50.99;94288.53;5041821;28;20667;-52
2023/04/11 06:31:32;;;;;;;7.10;6.40;;;;;;;22.17;50.27;94287.03;5042673;28;20262;-55
2023/04/11 06:34:00;;;;;;;7.25;6.55;;;;;;;22.56;49.54;94280.50;5041025;28;20205;-53
2023/04/11 06:36:27;;;;;;;8.48;6.35;;;;;;;22.75;48.99;94283.84;5042379;28;20206;-55
2023/04/11 06:38:54;;;;;;;6.93;6.32;;;;;;;22.84;49.05;94284.31;5040171;28;20202;-54
2023/04/11 06:41:21;;;;;;;6.85;6.15;;;;;;;22.87;48.80;94278.66;5044107;28;20701;-53
2023/04/11 06:43:47;;;;;;;6.85;6.20;;;;;;;22.87;48.56;94276.03;5040242;28;20231;-54
2023/04/11 06:46:14;;;;;;;7.47;6.32;;;;;;;22.90;48.73;94276.44;5040896;28;20293;-55
2023/04/11 06:48:41;;;;;;;7.47;6.70;;;;;;;22.90;48.36;94263.38;5039703;28;20196;-55
2023/04/11 06:51:09;;;;;;;7.13;6.53;;;;;;;22.87;48.05;94252.56;5040923;28;20191;-53
2023/04/11 06:53:36;;;;;;;7.38;6.70;;;;;;;23.10;47.52;94267.47;5033695;28;20206;-54
2023/04/11 06:56:03;;;;;;;7.18;6.47;;;;;;;23.29;47.14;94272.38;5045054;28;20187;-54
2023/04/11 06:58:30;;;;;;;6.90;6.20;;;;;;;23.57;46.17;94283.16;5038960;28;20195;-52
2023/04/11 07:00:57;;;;;;;6.82;6.22;;;;;;;23.69;46.18;94279.53;5041778;28;20186;-53
2023/04/11 07:03:25;;;;;;;7.30;6.40;;;;;;;23.65;46.13;94277.63;5039649;28;20310;-55
2023/04/11 07:05:52;;;;;;;6.47;5.90;;;;;;;23.60;46.23;94283.50;5042115;28;20213;-53
2023/04/11 07:08:20;;;;;;;7.07;6.32;;;;;;;23.58;45.97;94279.53;5040215;28;20200;-54
2023/04/11 07:10:47;;;;;;;6.28;5.72;;;;;;;23.47;45.89;94281.13;5041862;28;20336;-54
2023/04/11 07:13:13;;;;;;;6.60;6.00;;;;;;;23.34;45.94;94281.34;5043065;28;20188;-55
2023/04/11 07:15:40;;;;;;;7.30;6.35;;;;;;;23.11;45.94;94280.31;5041242;28;20195;-55
2023/04/11 07:18:07;;;;;;;7.25;6.05;;;;;;;22.91;45.69;94270.19;5036910;28;20648;-56
2023/04/11 07:20:34;;;;;;;6.97;6.30;;;;;;;22.78;45.35;94275.56;5042053;28;20574;-55
2023/04/11 07:23:02;;;;;;;6.93;6.32;;;;;;;22.55;45.18;94255.47;5035421;28;20265;-55
2023/04/11 07:25:32;;;;;;;6.70;6.10;;;;;;;22.68;45.27;94270.91;5037825;28;20671;-54
2023/04/11 07:28:00;;;;;;;6.70;6.10;;;;;;;22.72;45.03;94277.28;5038707;28;20650;-54
2023/04/11 07:30:26;;;;;;;6.28;5.68;;;;;;;22.88;44.91;94277.63;5038970;28;20245;-53
2023/04/11 07:32:53;;;;;;;6.53;5.93;;;;;;;23.09;44.82;94273.72;5040219;28;20210;-54
2023/04/11 07:35:20;;;;;;;7.20;6.60;;;;;;;23.32;44.70;94263.31;5035139;28;20659;-53
2023/04/11 07:37:47;;;;;;;6.45;5.85;;;;;;;23.51;44.42;94261.38;5047448;28;20206;-53
2023/04/11 07:40:14;;;;;;;6.47;5.82;;;;;;;23.74;44.12;94250.91;5040572;28;20211;-54
2023/04/11 07:42:42;;;;;;;6.25;5.75;;;;;;;23.86;44.02;94248.28;5035556;28;20697;-55
2023/04/11 07:45:09;;;;;;;6.55;5.95;;;;;;;23.98;44.37;94254.28;5038700;28;20207;-55
2023/04/11 07:47:36;;;;;;;6.68;6.07;;;;;;;24.16;43.75;94253.31;5040699;28;20188;-55
2023/04/11 07:50:03;;;;;;;6.75;6.15;;;;;;;24.33;43.70;94245.53;5035767;28;20206;-55
2023/04/11 07:52:30;;;;;;;6.35;5.75;;;;;;;24.35;43.54;94233.00;5043496;28;20202;-55
2023/04/11 07:54:57;;;;;;;7.10;5.95;;;;;;;24.66;43.45;94257.94;5038278;28;20192;-56
2023/04/11 07:57:23;;;;;;;5.97;5.47;;;;;;;24.77;42.86;94230.09;5035838;28;20187;-55
2023/04/11 07:59:52;;;;;;;6.00;5.47;;;;;;;25.09;42.74;94240.84;5039339;28;20778;-55
2023/04/11 08:02:18;;;;;;;6.32;5.70;;;;;;;25.28;42.39;94250.03;5038457;28;20190;-56
2023/04/11 08:04:45;;;;;;;5.95;5.45;;;;;;;25.47;42.22;94237.47;5040516;28;20722;-56
2023/04/11 08:07:12;;;;;;;6.25;5.65;;;;;;;25.59;42.17;94234.75;5037500;28;20655;-55
2023/04/11 08:09:41;;;;;;;6.47;5.88;;;;;;;25.66;42.16;94237.19;5039909;28;20226;-55
2023/04/11 08:12:08;;;;;;;8.00;6.32;;;;;;;25.60;42.20;94236.31;5032636;28;20287;-54
2023/04/11 08:14:35;;;;;;;6.53;5.43;;;;;;;25.50;42.24;94230.97;5040736;28;20198;-56
2023/04/11 08:17:03;;;;;;;6.35;5.72;;;;;;;25.36;42.12;94233.13;5029290;28;20575;-53
2023/04/11 08:19:31;;;;;;;6.15;5.55;;;;;;;25.22;41.57;94224.81;5044860;28;20195;-54
2023/04/11 08:21:57;;;;;;;6.05;5.50;;;;;;;25.12;41.39;94219.44;5039750;28;20628;-55
2023/04/11 08:24:24;;;;;;;6.15;5.60;;;;;;;25.02;41.73;94220.03;5039699;28;20207;-52
2023/04/11 08:26:51;;;;;;;6.07;5.47;;;;;;;24.83;41.11;94208.25;5043174;28;20184;-54
2023/04/11 08:29:18;;;;;;;5.68;5.18;;;;;;;24.78;40.93;94213.38;5038044;28;20187;-56
2023/04/11 08:31:45;;;;;;;6.43;5.82;;;;;;;24.60;41.05;94218.84;5036043;28;20209;-53
2023/04/11 08:34:14;;;;;;;5.20;4.80;;;;;;;24.38;41.32;94208.28;5039515;28;20199;-52
2023/04/11 08:36:41;;;;;;;5.95;5.45;;;;;;;24.14;41.39;94199.72;5038566;28;20643;-53
2023/04/11 08:39:08;;;;;;;6.20;5.38;;;;;;;23.96;40.98;94201.50;5034439;28;20576;-55
2023/04/11 08:41:37;;;;;;;5.60;5.07;;;;;;;23.78;41.18;94199.03;5037689;28;20191;-54
2023/04/11 08:44:04;;;;;;;5.90;5.38;;;;;;;23.65;40.87;94194.88;5041786;28;20211;-53
2023/04/11 08:46:32;;;;;;;5.45;4.95;;;;;;;23.61;41.14;94191.09;5039601;28;20250;-55
2023/04/11 08:49:00;;;;;;;6.13;5.53;;;;;;;23.58;40.87;94196.00;5035005;28;20190;-53
2023/04/11 08:51:28;;;;;;;7.35;5.35;;;;;;;23.56;41.04;94187.59;5033378;28;20576;-55
2023/04/11 08:53:59;;;;;;;6.20;5.60;;;;;;;23.58;40.85;94186.34;5034543;28;20199;-55
2023/04/11 08:56:26;;;;;;;5.57;5.07;;;;;;;23.65;40.65;94186.25;5041831;28;20234;-53
2023/04/11 08:58:52;;;;;;;6.32;5.72;;;;;;;23.72;40.52;94187.72;5035190;28;20632;-53
2023/04/11 09:01:27;;;;;;;6.20;5.55;;;;;;;23.80;40.62;94183.16;5040908;28;20709;-54
2023/04/11 09:03:55;;;;;;;5.38;4.88;;;;;;;23.88;40.30;94180.97;5040575;28;20213;-54
2023/04/11 09:06:22;;;;;;;6.00;5.43;;;;;;;23.92;40.54;94170.81;5037885;28;20614;-54
2023/04/11 09:08:50;;;;;;;6.35;5.70;;;;;;;23.92;40.24;94169.03;5041870;28;20641;-55
2023/04/11 09:11:17;;;;;;;5.93;5.35;;;;;;;23.97;39.91;94178.78;5039932;28;20241;-55
2023/04/11 09:13:44;;;;;;;7.00;5.45;;;;;;;23.89;39.87;94142.59;5039459;28;20225;-54
2023/04/11 09:16:12;;;;;;;5.40;4.90;;;;;;;24.02;40.04;94156.16;5042190;28;20265;-53
2023/04/11 09:18:41;;;;;;;5.55;5.05;;;;;;;23.98;39.99;94133.34;5039907;28;20191;-54
2023/04/11 09:21:09;;;;;;;5.97;5.47;;;;;;;24.14;39.68;94169.16;5037391;28;20202;-55
2023/04/11 09:23:37;;;;;;;5.43;4.95;;;;;;;24.00;39.79;94149.56;5040123;28;20218;-57
2023/04/11 09:26:07;;;;;;;5.88;5.22;;;;;;;24.16;39.54;94158.47;5044003;28;20194;-53
2023/04/11 09:28:42;;;;;;;5.63;5.13;;;;;;;24.28;39.27;94148.75;5037402;28;20198;-56
2023/04/11 09:31:11;;;;;;;5.35;4.95;;;;;;;24.40;39.37;94146.13;5042225;28;20186;-54
2023/04/11 09:33:38;;;;;;;5.32;4.93;;;;;;;24.44;39.50;94145.41;5034745;28;20571;-53
2023/04/11 09:36:19;;;;;;;5.60;5.10;;;;;;;24.36;39.18;94135.31;5037429;28;20657;-53
2023/04/11 09:38:46;;;;;;;6.32;5.72;;;;;;;24.25;38.96;94136.16;5040057;28;20267;-56
2023/04/11 09:41:15;;;;;;;5.75;5.25;;;;;;;24.13;39.11;94140.63;5032409;28;20203;-53
2023/04/11 09:43:52;;;;;;;5.90;5.30;;;;;;;23.96;39.27;94135.38;5036363;28;20227;-56
2023/04/11 09:46:19;;;;;;;5.90;5.40;;;;;;;23.85;39.63;94126.59;5036733;28;20203;-57
2023/04/11 09:48:46;;;;;;;6.15;5.57;;;;;;;23.72;39.35;94113.81;5033857;28;20186;-55
2023/04/11 09:51:14;;;;;;;5.55;5.05;;;;;;;23.72;39.39;94113.81;5032667;28;20246;-54
2023/04/11 09:53:42;;;;;;;6.15;5.55;;;;;;;23.66;39.50;94102.50;5035582;28;20198;-56
2023/04/11 09:56:10;;;;;;;5.85;5.35;;;;;;;23.62;39.47;94108.34;5037696;28;20184;-54
2023/04/11 09:58:39;;;;;;;8.57;5.70;;;;;;;23.57;39.30;94101.22;5041572;28;20671;-54
2023/04/11 10:01:08;;;;;;;5.95;5.45;;;;;;;23.42;39.28;94078.25;5042412;28;20195;-56
2023/04/11 10:03:35;;;;;;;6.43;5.82;;;;;;;23.50;39.30;94095.34;5037386;28;20223;-57
2023/04/11 10:06:06;;;;;;;6.57;5.97;;;;;;;23.52;39.30;94088.84;5036638;28;20202;-55
2023/04/11 10:08:36;;;;;;;6.45;5.85;;;;;;;23.60;39.22;94095.53;5038425;28;20195;-56
2023/04/11 10:11:06;;;;;;;6.53;5.93;;;;;;;23.70;39.09;94089.72;5036344;28;20199;-55
2023/04/11 10:13:44;;;;;;;6.68;6.07;;;;;;;23.80;38.74;94089.94;5039318;28;20203;-56
2023/04/11 10:16:13;;;;;;;6.07;5.28;;;;;;;23.81;38.58;94088.13;5037724;28;20651;-56
2023/04/11 10:19:13;;;;;;;6.25;5.65;;;;;;;23.78;38.62;94082.31;5031775;28;20224;-54
2023/04/11 10:21:41;;;;;;;6.63;5.93;;;;;;;23.88;38.41;94081.72;5030886;28;20217;-55
2023/04/11 10:24:09;;;;;;;6.72;6.13;;;;;;;24.00;38.70;94071.97;5038986;28;20224;-56
2023/04/11 10:26:50;;;;;;;6.47;5.88;;;;;;;24.09;38.60;94072.38;5041131;28;20302;-54
2023/04/11 10:29:50;;;;;;;6.90;6.30;;;;;;;24.18;38.26;94076.22;5036544;28;20196;-55
2023/04/11 10:32:24;;;;;;;6.50;5.90;;;;;;;24.20;38.26;94066.31;5033821;28;20223;-53
2023/04/11 10:35:22;;;;;;;6.70;6.10;;;;;;;24.06;37.83;94051.19;5036331;28;20234;-55
2023/04/11 10:37:49;;;;;;;7.03;6.43;;;;;;;23.95;38.02;94053.63;4977744;28;20764;-53
2023/04/11 10:40:19;;;;;;;7.78;6.13;;;;;;;23.84;38.39;94051.88;4974219;28;20202;-56
2023/04/11 10:42:46;;;;;;;6.32;5.80;;;;;;;23.72;38.34;94049.31;4983070;28;20231;-55
2023/04/11 10:45:26;;;;;;;6.63;6.03;;;;;;;23.58;38.35;94044.59;4983399;28;20240;-53
2023/04/11 10:48:04;;;;;;;6.35;5.75;;;;;;;23.45;38.27;94043.84;4981513;28;20201;-54
2023/04/11 10:50:36;;;;;;;6.90;6.20;;;;;;;23.33;38.35;94043.09;4980798;28;20336;-55
2023/04/11 10:53:06;;;;;;;7.07;6.38;;;;;;;23.24;38.58;94026.25;4980730;28;20268;-54
2023/04/11 10:55:43;;;;;;;6.30;5.70;;;;;;;23.21;38.60;94030.09;4982616;28;21008;-54
2023/04/11 10:58:12;;;;;;;6.47;5.88;;;;;;;23.14;38.46;94031.25;4981370;28;20284;-54
2023/04/11 11:01:15;;;;;;;6.72;6.03;;;;;;;22.99;38.54;94032.53;4977318;28;20699;-53
2023/04/11 11:03:51;;;;;;;7.30;6.30;;;;;;;22.96;38.76;94017.34;4918329;29;20213;-54
2023/04/11 11:06:19;;;;;;;7.35;5.68;;;;;;;23.00;38.42;94017.66;4923467;29;21169;-53
2023/04/11 11:08:46;;;;;;;7.10;6.40;;;;;;;23.05;38.34;94007.34;4921600;29;20297;-52
2023/04/11 11:11:14;;;;;;;6.30;5.70;;;;;;;22.92;38.17;93995.34;4924196;29;20199;-54
2023/04/11 11:13:43;;;;;;;7.45;6.75;;;;;;;22.89;38.22;94003.63;4960707;28;20308;-54
2023/04/11 11:16:16;;;;;;;9.55;6.95;;;;;;;22.74;38.70;93998.09;4973521;28;20201;-53
2023/04/11 11:18:46;;;;;;;6.82;6.10;;;;;;;22.61;38.86;94000.94;4974046;28;20960;-53
2023/04/11 11:21:15;;;;;;;7.32;6.63;;;;;;;22.47;38.85;94003.78;4983308;28;20731;-53
2023/04/11 11:23:58;;;;;;;6.45;5.90;;;;;;;22.36;38.97;93993.38;4972018;28;20233;-53
2023/04/11 11:26:36;;;;;;;6.68;6.07;;;;;;;22.29;38.94;93993.50;4903418;29;20296;-54
2023/04/11 11:29:04;;;;;;;6.68;6.07;;;;;;;22.21;38.93;93999.84;4901613;29;20268;-56
2023/04/11 11:31:40;;;;;;;7.07;6.25;;;;;;;22.22;38.77;93993.59;4895799;29;20296;-53
2023/04/11 11:34:08;;;;;;;9.52;6.65;;;;;;;22.24;38.98;93991.59;4918844;28;20237;-55
2023/04/11 11:36:41;;;;;;;6.40;5.80;;;;;;;22.25;38.78;93982.75;4974660;28;20599;-53